Wausau, FL (32463)

10:46 PM CDT on July 28, 2016 (GMT -0500)
APRSWXNET | | Change Station

Elev 131 ft 30.74 °N, 85.59 °W | Updated 40 minutes ago

Clear
Clear
79 °F
Feels Like 83 °F
N
0
Wind Variable Wind from SSE
Gusts 0.0 mph

Today
High -- | Low -- °F
--% Chance of Precip.
Yesterday
High -- | Low -- °F
Precip. -- in
Pressure 30.03 in
Visibility 10.0 miles
Clouds Clear
Heat Index 83 °F
Dew Point 76 °F
Humidity 90%
Rainfall in
Snow Depth Not available.
5:58 AM 7:39 PM
Waning Crescent, 26% visible
METAR K1J0 290158Z AUTO 22004KT 10SM CLR 27/23 A3003 RMK AO2 SLPNO T02720233
Pressure 30.03 in
Visibility 10.0 miles
Clouds Clear
Heat Index 83 °F
Dew Point 76 °F
Humidity 90%
Rainfall in
Snow Depth Not available.
5:58 AM 7:39 PM
Waning Crescent, 26% visible
METAR K1J0 290158Z AUTO 22004KT 10SM CLR 27/23 A3003 RMK AO2 SLPNO T02720233

10-Day Weather Forecast

Almanac

Astronomy

Jul. 28, 2016 Rise Set
Actual Time
Civil Twilight
Nautical Twilight
Astronomical Twilight
Moon
Length of Visible Light
Length of Day
Tomorrow will be .
, % of the Moon is Illuminated

Today's Extremes

State Highs State Lows

Community

WunderPhotos

Upload Photos

1,928,286 photos uploaded!

WunderBlog® & News

Nearby

Air Quality

  Air Quality AQ Index Pollutant
Not available.

Snow Depth

Station Depth Elevation

Earthquake Activity

City Distance Mag. Time & Date
Minimum magnitude displayed is 2.5.

Coastal Water Temperatures

Place Temperature

Stations

Nearby Weather Stations

Station Location Temp. Windchill Dew Point Humidity Wind Precip. Elev Updated Type
                   

Watches & Warnings

There are currently no watches in effect.